createdAt,value
2017-09-30T00:01:00.098Z,13.87
2017-09-30T00:02:00.205Z,13.89
2017-09-30T00:03:00.313Z,13.89
2017-09-30T00:03:59.816Z,13.96
2017-09-30T00:04:59.906Z,13.98
2017-09-30T00:06:00.066Z,13.95
2017-09-30T00:07:00.412Z,13.98
2017-09-30T00:08:00.072Z,14.01
2017-09-30T00:09:00.439Z,13.92
2017-09-30T00:10:00.290Z,13.94
2017-09-30T00:11:00.154Z,13.92
2017-09-30T00:12:00.263Z,14.01
2017-09-30T00:13:00.767Z,13.88
2017-09-30T00:14:00.883Z,13.88
2017-09-30T00:15:00.531Z,13.89
2017-09-30T00:16:00.637Z,13.81
2017-09-30T00:17:00.829Z,13.79
2017-09-30T00:18:00.939Z,13.80
2017-09-30T00:19:01.079Z,13.76
2017-09-30T00:20:00.388Z,13.79
2017-09-30T00:21:00.596Z,13.74
2017-09-30T00:22:00.747Z,13.71
2017-09-30T00:23:01.124Z,13.67
2017-09-30T00:24:01.012Z,13.62
2017-09-30T00:25:01.301Z,13.67
2017-09-30T00:26:01.304Z,13.58
2017-09-30T00:27:01.412Z,13.59
2017-09-30T00:28:01.364Z,13.58
2017-09-30T00:29:01.270Z,13.58
2017-09-30T00:30:01.512Z,13.55
2017-09-30T00:31:01.199Z,13.56
2017-09-30T00:32:01.336Z,13.54
2017-09-30T00:33:01.734Z,13.56
2017-09-30T00:34:01.522Z,13.54
2017-09-30T00:35:01.656Z,13.46
2017-09-30T00:36:01.800Z,13.47
2017-09-30T00:37:01.850Z,13.49
2017-09-30T00:38:01.878Z,13.46
2017-09-30T00:39:02.041Z,13.47
2017-09-30T00:40:01.918Z,13.49
2017-09-30T00:41:01.874Z,13.51
2017-09-30T00:42:01.877Z,13.51
2017-09-30T00:43:01.819Z,13.52
2017-09-30T00:44:01.910Z,13.43
2017-09-30T00:45:02.359Z,13.47
2017-09-30T00:46:02.358Z,13.33
2017-09-30T00:47:02.444Z,13.29
2017-09-30T00:48:02.053Z,13.22
2017-09-30T00:49:02.403Z,13.30
2017-09-30T00:50:02.401Z,13.22
2017-09-30T00:51:03.094Z,13.22
2017-09-30T00:52:02.295Z,13.25
2017-09-30T00:53:02.612Z,13.24
2017-09-30T00:54:02.669Z,13.22
2017-09-30T00:55:02.380Z,13.25
2017-09-30T00:56:02.623Z,13.18
2017-09-30T00:57:02.325Z,13.30
2017-09-30T00:58:02.497Z,13.36
2017-09-30T00:59:02.317Z,13.22
2017-09-30T01:00:02.579Z,13.36
2017-09-30T01:01:02.535Z,13.24
2017-09-30T01:02:02.999Z,13.21
2017-09-30T01:03:02.881Z,13.27
2017-09-30T01:04:03.136Z,13.17
2017-09-30T01:05:02.916Z,13.17
2017-09-30T01:06:02.642Z,13.30
2017-09-30T01:07:03.422Z,13.32
2017-09-30T01:08:03.249Z,13.27
2017-09-30T01:09:03.505Z,13.21
2017-09-30T01:10:03.135Z,13.20
2017-09-30T01:11:03.139Z,13.11
2017-09-30T01:12:03.876Z,13.12
2017-09-30T01:13:03.225Z,12.99
2017-09-30T01:14:03.694Z,12.97
2017-09-30T01:15:03.422Z,12.96
2017-09-30T01:16:03.858Z,12.93
2017-09-30T01:17:03.841Z,12.81
2017-09-30T01:18:03.498Z,12.81
2017-09-30T01:19:03.724Z,12.84
2017-09-30T01:20:03.907Z,12.87
2017-09-30T01:21:04.080Z,12.88
2017-09-30T01:22:03.738Z,12.78
2017-09-30T01:23:04.548Z,12.93
2017-09-30T01:24:03.628Z,12.87
2017-09-30T01:25:04.109Z,12.81
2017-09-30T01:26:03.819Z,12.79
2017-09-30T01:27:03.683Z,12.92
2017-09-30T01:28:03.851Z,12.78
2017-09-30T01:29:04.264Z,12.78
2017-09-30T01:30:03.844Z,12.88
2017-09-30T01:31:03.869Z,12.79
2017-09-30T01:32:04.090Z,12.85
2017-09-30T01:33:04.306Z,12.84
2017-09-30T01:34:04.233Z,12.89
2017-09-30T01:35:04.030Z,12.85
2017-09-30T01:36:04.413Z,12.89
2017-09-30T01:37:04.261Z,12.96
2017-09-30T01:38:04.785Z,12.88
2017-09-30T01:39:04.267Z,12.93
2017-09-30T01:40:04.470Z,12.81
2017-09-30T01:41:04.590Z,12.75
2017-09-30T01:42:04.746Z,12.70
2017-09-30T01:43:04.703Z,12.74
2017-09-30T01:44:05.078Z,12.78
2017-09-30T01:45:04.806Z,12.59
2017-09-30T01:46:05.168Z,12.70
2017-09-30T01:47:04.775Z,12.52
2017-09-30T01:48:04.859Z,12.57
2017-09-30T01:49:05.260Z,12.52
2017-09-30T01:50:05.090Z,12.56
2017-09-30T01:51:04.795Z,12.56
2017-09-30T01:52:05.017Z,12.54
2017-09-30T01:53:05.140Z,12.60
2017-09-30T01:54:05.455Z,12.56
2017-09-30T01:55:05.006Z,12.46
2017-09-30T01:56:05.044Z,12.51
2017-09-30T01:57:05.276Z,12.48
2017-09-30T01:58:05.318Z,12.56
2017-09-30T01:59:05.772Z,12.59
2017-09-30T02:00:05.578Z,12.66
2017-09-30T02:01:05.598Z,12.75
2017-09-30T02:02:06.141Z,12.60
2017-09-30T02:03:06.151Z,12.49
2017-09-30T02:04:06.186Z,12.57
2017-09-30T02:05:06.219Z,12.54
2017-09-30T02:06:06.242Z,12.52
2017-09-30T02:07:05.818Z,12.59
2017-09-30T02:08:05.885Z,12.62
2017-09-30T02:09:06.305Z,12.57
2017-09-30T02:10:06.486Z,12.70
2017-09-30T02:11:06.396Z,12.69
2017-09-30T02:12:06.038Z,12.71
2017-09-30T02:13:06.032Z,12.81
2017-09-30T02:14:06.020Z,12.92
2017-09-30T02:15:06.197Z,12.82
2017-09-30T02:16:06.225Z,12.92
2017-09-30T02:17:06.207Z,12.96
2017-09-30T02:18:06.151Z,13.02
2017-09-30T02:19:06.211Z,12.99
2017-09-30T02:20:06.485Z,12.95
2017-09-30T02:21:06.394Z,13.02
2017-09-30T02:22:06.390Z,13.00
2017-09-30T02:23:06.281Z,13.02
2017-09-30T02:24:06.952Z,12.99
2017-09-30T02:25:06.798Z,13.03
2017-09-30T02:26:06.765Z,13.06
2017-09-30T02:27:06.613Z,13.11
2017-09-30T02:28:06.658Z,13.12
2017-09-30T02:29:06.977Z,13.03
2017-09-30T02:30:07.389Z,13.07
2017-09-30T02:31:07.184Z,13.07
2017-09-30T02:32:06.802Z,13.07
2017-09-30T02:33:06.947Z,13.11
2017-09-30T02:34:06.940Z,13.03
2017-09-30T02:35:07.109Z,13.11
2017-09-30T02:36:07.617Z,13.17
2017-09-30T02:37:07.258Z,13.21
2017-09-30T02:38:07.212Z,13.22
2017-09-30T02:39:07.254Z,13.29
2017-09-30T02:40:07.493Z,13.41
2017-09-30T02:41:07.383Z,13.46
2017-09-30T02:42:07.568Z,13.54
2017-09-30T02:43:07.337Z,13.59
2017-09-30T02:44:07.732Z,13.62
2017-09-30T02:45:07.543Z,13.56
2017-09-30T02:46:07.457Z,13.62
2017-09-30T02:47:08.102Z,13.62
2017-09-30T02:48:07.752Z,13.56
2017-09-30T02:49:07.683Z,13.58
2017-09-30T02:50:07.721Z,13.61
2017-09-30T02:51:08.345Z,13.59
2017-09-30T02:52:08.469Z,13.59
2017-09-30T02:53:08.034Z,13.54
2017-09-30T02:54:08.041Z,13.55
2017-09-30T02:55:09.488Z,13.56
2017-09-30T02:56:08.246Z,13.61
2017-09-30T02:57:09.352Z,13.56
2017-09-30T02:58:08.415Z,13.55
2017-09-30T02:59:08.248Z,13.69
2017-09-30T03:00:08.771Z,13.62
2017-09-30T03:01:08.916Z,13.71
2017-09-30T03:02:08.883Z,13.71
2017-09-30T03:03:08.848Z,13.70
2017-09-30T03:04:08.908Z,13.77
2017-09-30T03:05:08.811Z,13.81
2017-09-30T03:06:08.882Z,13.79
2017-09-30T03:07:08.856Z,13.83
2017-09-30T03:08:09.176Z,13.84
2017-09-30T03:09:09.074Z,13.81
2017-09-30T03:10:08.983Z,13.80
2017-09-30T03:11:09.419Z,13.80
2017-09-30T03:12:09.064Z,13.71
2017-09-30T03:13:08.763Z,13.79
2017-09-30T03:14:09.136Z,13.81
2017-09-30T03:15:09.124Z,13.81
2017-09-30T03:16:08.970Z,13.87
2017-09-30T03:17:09.442Z,13.81
2017-09-30T03:18:09.166Z,13.87
2017-09-30T03:19:09.271Z,13.87
2017-09-30T03:20:09.170Z,13.83
2017-09-30T03:21:09.253Z,13.88
2017-09-30T03:22:09.216Z,13.91
2017-09-30T03:23:09.413Z,13.88
2017-09-30T03:24:10.021Z,13.83
2017-09-30T03:25:09.604Z,13.84
2017-09-30T03:26:09.505Z,13.88
2017-09-30T03:27:09.734Z,13.83
2017-09-30T03:28:09.710Z,13.77
2017-09-30T03:29:09.926Z,13.67
2017-09-30T03:30:09.764Z,13.65
2017-09-30T03:31:09.930Z,13.69
2017-09-30T03:32:10.217Z,13.56
2017-09-30T03:33:09.917Z,13.61
2017-09-30T03:34:10.093Z,13.59
2017-09-30T03:35:09.833Z,13.55
2017-09-30T03:36:10.141Z,13.56
2017-09-30T03:37:10.106Z,13.55
2017-09-30T03:38:10.349Z,13.52
2017-09-30T03:39:10.658Z,13.61
2017-09-30T03:40:10.262Z,13.61
2017-09-30T03:41:10.145Z,13.59
2017-09-30T03:42:10.175Z,13.62
2017-09-30T03:43:10.638Z,13.55
2017-09-30T03:44:10.346Z,13.51
2017-09-30T03:45:10.792Z,13.52
2017-09-30T03:46:10.651Z,13.46
2017-09-30T03:47:10.584Z,13.36
2017-09-30T03:48:10.511Z,13.24
2017-09-30T03:49:10.502Z,13.27
2017-09-30T03:50:10.834Z,13.20
2017-09-30T03:51:10.833Z,13.20
2017-09-30T03:52:10.896Z,13.18
2017-09-30T03:53:10.935Z,13.20
2017-09-30T03:54:10.977Z,13.17
2017-09-30T03:55:11.469Z,13.21
2017-09-30T03:56:10.924Z,13.24
2017-09-30T03:57:11.077Z,13.22
2017-09-30T03:58:11.487Z,13.30
2017-09-30T03:59:11.167Z,13.37
2017-09-30T04:00:11.405Z,13.38
2017-09-30T04:01:11.173Z,13.30
2017-09-30T04:02:11.387Z,13.33
2017-09-30T04:03:11.826Z,13.43
2017-09-30T04:04:11.510Z,13.40
2017-09-30T04:05:11.554Z,13.43
2017-09-30T04:06:12.087Z,13.44
2017-09-30T04:07:12.013Z,13.46
2017-09-30T04:08:11.246Z,13.55
2017-09-30T04:09:11.292Z,13.52
2017-09-30T04:10:11.342Z,13.55
2017-09-30T04:11:11.455Z,13.56
2017-09-30T04:12:12.023Z,13.58
2017-09-30T04:13:12.141Z,13.59
2017-09-30T04:14:12.080Z,13.74
2017-09-30T04:15:12.399Z,13.73
2017-09-30T04:16:12.746Z,13.84
2017-09-30T04:17:12.459Z,13.81
2017-09-30T04:18:12.566Z,13.81
2017-09-30T04:19:12.745Z,13.84
2017-09-30T04:20:12.241Z,13.83
2017-09-30T04:21:12.668Z,13.81
2017-09-30T04:22:12.382Z,13.84
2017-09-30T04:23:12.906Z,13.80
2017-09-30T04:24:12.639Z,13.84
2017-09-30T04:25:12.999Z,13.80
2017-09-30T04:26:13.072Z,13.81
2017-09-30T04:27:12.718Z,13.84
2017-09-30T04:28:13.158Z,13.81
2017-09-30T04:29:13.183Z,13.84
2017-09-30T04:30:13.224Z,13.81
2017-09-30T04:31:13.197Z,13.84
2017-09-30T04:32:13.188Z,13.81
2017-09-30T04:33:12.912Z,13.84
2017-09-30T04:34:13.475Z,13.83
2017-09-30T04:35:12.933Z,13.80
2017-09-30T04:36:13.516Z,13.81
2017-09-30T04:37:13.506Z,13.73
2017-09-30T04:38:13.849Z,13.81
2017-09-30T04:39:13.684Z,13.81
2017-09-30T04:40:13.376Z,13.71
2017-09-30T04:41:13.449Z,13.73
2017-09-30T04:42:13.796Z,13.80
2017-09-30T04:43:13.874Z,13.71
2017-09-30T04:44:13.817Z,13.81
2017-09-30T04:45:13.495Z,13.83
2017-09-30T04:46:13.545Z,13.81
2017-09-30T04:47:13.941Z,13.87
2017-09-30T04:48:14.163Z,13.76
2017-09-30T04:49:14.084Z,13.87
2017-09-30T04:50:14.071Z,13.84
2017-09-30T04:51:14.080Z,13.81
2017-09-30T04:52:14.172Z,13.80
2017-09-30T04:53:14.269Z,13.83
2017-09-30T04:54:14.094Z,13.89
2017-09-30T04:55:14.466Z,13.89
2017-09-30T04:56:13.872Z,13.87
2017-09-30T04:57:14.326Z,13.88
2017-09-30T04:58:14.335Z,13.77
2017-09-30T04:59:14.355Z,13.80
2017-09-30T05:00:14.286Z,13.79
2017-09-30T05:01:14.414Z,13.80
2017-09-30T05:02:14.737Z,13.65
2017-09-30T05:03:14.543Z,13.74
2017-09-30T05:04:14.502Z,13.71
2017-09-30T05:05:14.568Z,13.76
2017-09-30T05:06:15.136Z,13.71
2017-09-30T05:07:15.238Z,13.69
2017-09-30T05:08:15.044Z,13.74
2017-09-30T05:09:14.393Z,13.71
2017-09-30T05:10:14.663Z,13.73
2017-09-30T05:11:14.585Z,13.73
2017-09-30T05:12:14.726Z,13.70
2017-09-30T05:13:14.836Z,13.61
2017-09-30T05:14:14.844Z,13.56
2017-09-30T05:15:14.886Z,13.70
2017-09-30T05:16:14.850Z,13.58
2017-09-30T05:17:14.926Z,13.61
2017-09-30T05:18:15.357Z,13.65
2017-09-30T05:19:15.149Z,13.56
2017-09-30T05:20:14.950Z,13.51
2017-09-30T05:21:15.121Z,13.58
2017-09-30T05:22:15.476Z,13.58
2017-09-30T05:23:15.417Z,13.61
2017-09-30T05:24:15.693Z,13.58
2017-09-30T05:25:15.537Z,13.58
2017-09-30T05:26:15.287Z,13.62
2017-09-30T05:27:15.348Z,13.58
2017-09-30T05:28:15.370Z,13.59
2017-09-30T05:29:15.742Z,13.62
2017-09-30T05:30:15.510Z,13.63
2017-09-30T05:31:15.605Z,13.58
2017-09-30T05:32:15.779Z,13.56
2017-09-30T05:33:15.770Z,13.70
2017-09-30T05:34:16.189Z,13.59
2017-09-30T05:35:15.981Z,13.61
2017-09-30T05:36:16.057Z,13.58
2017-09-30T05:37:16.492Z,13.55
2017-09-30T05:38:15.705Z,13.62
2017-09-30T05:39:16.385Z,13.58
2017-09-30T05:40:16.325Z,13.59
2017-09-30T05:41:16.258Z,13.63
2017-09-30T05:42:16.603Z,13.73
2017-09-30T05:43:16.849Z,13.77
2017-09-30T05:44:16.870Z,13.76
2017-09-30T05:45:16.795Z,13.81
2017-09-30T05:46:16.488Z,13.81
2017-09-30T05:47:16.917Z,13.77
2017-09-30T05:48:17.038Z,13.77
2017-09-30T05:49:16.679Z,13.79
2017-09-30T05:50:16.989Z,13.71
2017-09-30T05:51:16.772Z,13.73
2017-09-30T05:52:16.856Z,13.63
2017-09-30T05:53:17.239Z,13.65
2017-09-30T05:54:17.297Z,13.56
2017-09-30T05:55:17.259Z,13.73
2017-09-30T05:56:17.310Z,13.70
2017-09-30T05:57:17.357Z,13.71
2017-09-30T05:58:17.399Z,13.80
2017-09-30T05:59:17.771Z,13.76
2017-09-30T06:00:17.562Z,13.79
2017-09-30T06:01:17.266Z,13.73
2017-09-30T06:02:17.673Z,13.73
2017-09-30T06:03:17.653Z,13.74
2017-09-30T06:04:17.841Z,13.67
2017-09-30T06:05:17.869Z,13.76
2017-09-30T06:06:17.788Z,13.76
2017-09-30T06:07:17.877Z,13.87
2017-09-30T06:08:17.452Z,13.80
2017-09-30T06:09:17.737Z,13.87
2017-09-30T06:10:17.466Z,13.84
2017-09-30T06:11:17.929Z,13.92
2017-09-30T06:12:17.650Z,13.96
2017-09-30T06:13:17.662Z,13.98
2017-09-30T06:14:17.689Z,14.01
2017-09-30T06:15:17.641Z,13.94
2017-09-30T06:16:17.932Z,13.99
2017-09-30T06:17:17.713Z,13.95
2017-09-30T06:18:18.515Z,13.94
2017-09-30T06:19:18.183Z,13.95
2017-09-30T06:20:18.187Z,13.92
2017-09-30T06:21:18.609Z,13.98
2017-09-30T06:22:18.089Z,13.99
2017-09-30T06:23:18.217Z,14.17
2017-09-30T06:24:18.241Z,14.31
2017-09-30T06:25:18.161Z,14.37
2017-09-30T06:26:18.507Z,14.29
2017-09-30T06:27:18.383Z,14.37
2017-09-30T06:28:18.306Z,14.46
2017-09-30T06:29:18.374Z,14.37
2017-09-30T06:30:18.656Z,14.37
2017-09-30T06:31:18.884Z,14.35
2017-09-30T06:32:18.900Z,14.29
2017-09-30T06:33:19.011Z,14.27
2017-09-30T06:34:18.552Z,14.28
2017-09-30T06:35:18.640Z,14.38
2017-09-30T06:36:18.664Z,14.39
2017-09-30T06:37:19.388Z,14.37
2017-09-30T06:38:19.409Z,14.38
2017-09-30T06:39:19.079Z,14.49
2017-09-30T06:40:19.256Z,14.47
2017-09-30T06:41:19.066Z,14.54
2017-09-30T06:42:19.180Z,14.53
2017-09-30T06:43:19.385Z,14.53
2017-09-30T06:44:19.747Z,14.56
2017-09-30T06:45:19.569Z,14.68
2017-09-30T06:46:19.178Z,14.72
2017-09-30T06:47:19.727Z,14.91
2017-09-30T06:48:19.380Z,14.94
2017-09-30T06:49:19.699Z,14.95
2017-09-30T06:50:19.346Z,15.27
2017-09-30T06:51:19.664Z,15.43
2017-09-30T06:52:20.168Z,15.63
2017-09-30T06:53:19.621Z,15.78
2017-09-30T06:54:19.751Z,15.96
2017-09-30T06:55:19.641Z,15.99
2017-09-30T06:56:19.643Z,16.25
2017-09-30T06:57:19.962Z,16.37
2017-09-30T06:58:20.446Z,16.41
2017-09-30T06:59:20.368Z,16.60
2017-09-30T07:00:20.152Z,16.68
2017-09-30T07:01:20.316Z,16.81
2017-09-30T07:02:20.191Z,16.89
2017-09-30T07:03:20.727Z,16.80
2017-09-30T07:04:20.095Z,16.77
2017-09-30T07:05:20.316Z,16.62
2017-09-30T07:06:20.360Z,16.45
2017-09-30T07:07:20.381Z,16.26
2017-09-30T07:08:20.663Z,16.20
2017-09-30T07:09:20.276Z,16.15
2017-09-30T07:10:20.918Z,16.03
2017-09-30T07:11:20.580Z,16.06
2017-09-30T07:12:21.019Z,16.18
2017-09-30T07:13:20.889Z,16.60
2017-09-30T07:14:20.997Z,17.17
2017-09-30T07:15:20.900Z,17.70
2017-09-30T07:16:20.663Z,17.66
2017-09-30T07:17:20.763Z,17.64
2017-09-30T07:18:21.181Z,17.87
2017-09-30T07:19:20.981Z,18.12
2017-09-30T07:20:20.908Z,18.21
2017-09-30T07:21:21.064Z,18.15
2017-09-30T07:22:20.949Z,18.13
2017-09-30T07:23:21.144Z,17.99
2017-09-30T07:24:21.462Z,17.88
2017-09-30T07:25:21.414Z,17.73
2017-09-30T07:26:21.125Z,17.63
2017-09-30T07:27:21.469Z,17.41
2017-09-30T07:28:21.246Z,17.36
2017-09-30T07:29:21.654Z,17.32
2017-09-30T07:30:21.686Z,17.22
2017-09-30T07:31:21.629Z,17.14
2017-09-30T07:32:21.578Z,17.28
2017-09-30T07:33:21.545Z,17.23
2017-09-30T07:34:22.519Z,17.23
2017-09-30T07:35:21.913Z,17.11
2017-09-30T07:36:22.395Z,17.03
2017-09-30T07:37:22.029Z,16.93
2017-09-30T07:38:22.244Z,16.90
2017-09-30T07:39:22.358Z,16.92
2017-09-30T07:40:21.927Z,17.06
2017-09-30T07:41:22.988Z,17.00
2017-09-30T07:42:22.712Z,16.92
2017-09-30T07:43:22.314Z,16.88
2017-09-30T07:44:22.267Z,16.78
2017-09-30T07:45:22.690Z,16.75
2017-09-30T07:46:22.284Z,16.90
2017-09-30T07:47:22.754Z,17.00
2017-09-30T07:48:22.645Z,17.13
2017-09-30T07:49:22.748Z,17.14
2017-09-30T07:50:22.932Z,17.36
2017-09-30T07:51:22.652Z,17.53
2017-09-30T07:52:22.851Z,17.76
2017-09-30T07:53:22.897Z,17.97
2017-09-30T07:54:22.998Z,18.13
2017-09-30T07:55:23.825Z,18.06
2017-09-30T07:56:22.424Z,18.04
2017-09-30T07:57:22.477Z,18.13
2017-09-30T07:58:22.523Z,18.27
2017-09-30T07:59:23.434Z,18.21
2017-09-30T08:00:22.742Z,18.10
2017-09-30T08:01:22.745Z,18.07
2017-09-30T08:02:22.837Z,18.02
2017-09-30T08:03:22.825Z,17.95
2017-09-30T08:04:23.691Z,17.85
2017-09-30T08:05:23.038Z,17.84
2017-09-30T08:06:23.440Z,17.74
2017-09-30T08:07:23.394Z,17.71
2017-09-30T08:08:23.030Z,17.82
2017-09-30T08:09:23.914Z,17.84
2017-09-30T08:10:24.067Z,17.89
2017-09-30T08:11:24.251Z,17.92
2017-09-30T08:12:24.025Z,17.82
2017-09-30T08:13:23.852Z,17.92
2017-09-30T08:14:23.774Z,17.92
2017-09-30T08:15:23.992Z,17.85
2017-09-30T08:16:24.172Z,17.89
2017-09-30T08:17:23.922Z,17.85
2017-09-30T08:18:24.090Z,17.82
2017-09-30T08:19:24.402Z,17.88
2017-09-30T08:20:24.631Z,17.91
2017-09-30T08:21:24.469Z,17.82
2017-09-30T08:22:24.283Z,17.85
2017-09-30T08:23:24.252Z,17.82
2017-09-30T08:24:23.845Z,17.94
2017-09-30T08:25:24.274Z,18.02
2017-09-30T08:26:24.638Z,18.00
2017-09-30T08:27:24.253Z,17.97
2017-09-30T08:28:24.162Z,18.00
2017-09-30T08:29:24.095Z,18.06
2017-09-30T08:30:24.510Z,18.17
2017-09-30T08:31:24.771Z,18.17
2017-09-30T08:32:24.249Z,18.24
2017-09-30T08:33:24.708Z,18.55
2017-09-30T08:34:24.914Z,18.91
2017-09-30T08:35:24.399Z,18.97
2017-09-30T08:36:25.657Z,19.21
2017-09-30T08:37:24.836Z,19.42
2017-09-30T08:38:24.555Z,20.06
2017-09-30T08:39:24.604Z,20.69
2017-09-30T08:40:24.657Z,20.80
2017-09-30T08:41:24.707Z,20.50
2017-09-30T08:42:24.826Z,20.31
2017-09-30T08:43:24.812Z,20.12
2017-09-30T08:44:25.288Z,20.34
2017-09-30T08:45:25.461Z,20.99
2017-09-30T08:46:25.484Z,21.66
2017-09-30T08:47:25.802Z,21.88
2017-09-30T08:48:25.596Z,21.63
2017-09-30T08:49:26.043Z,21.82
2017-09-30T08:50:25.656Z,22.27
2017-09-30T08:51:25.676Z,22.69
2017-09-30T08:52:25.354Z,23.02
2017-09-30T08:53:25.332Z,23.24
2017-09-30T08:54:25.594Z,23.17
2017-09-30T08:55:25.443Z,23.46
2017-09-30T08:56:26.193Z,23.26
2017-09-30T08:57:25.632Z,23.46
2017-09-30T08:58:25.785Z,23.71
2017-09-30T08:59:25.953Z,23.27
2017-09-30T09:00:25.823Z,23.09
2017-09-30T09:01:25.766Z,23.22
2017-09-30T09:02:27.044Z,22.34
2017-09-30T09:03:26.424Z,21.46
2017-09-30T09:04:26.684Z,20.84
2017-09-30T09:05:26.860Z,20.87
2017-09-30T09:06:26.521Z,20.89
2017-09-30T09:07:26.611Z,20.18
2017-09-30T09:08:26.804Z,20.23
2017-09-30T09:09:26.885Z,20.53
2017-09-30T09:10:26.269Z,20.84
2017-09-30T09:11:26.915Z,20.65
2017-09-30T09:12:26.948Z,20.56
2017-09-30T09:13:27.521Z,20.64
2017-09-30T09:14:27.057Z,20.68
2017-09-30T09:15:27.479Z,20.68
2017-09-30T09:16:27.449Z,20.86
2017-09-30T09:17:27.270Z,21.27
2017-09-30T09:18:27.890Z,21.27
2017-09-30T09:19:27.046Z,21.01
2017-09-30T09:20:27.753Z,20.91
2017-09-30T09:21:27.330Z,21.05
2017-09-30T09:22:27.499Z,21.06
2017-09-30T09:23:27.329Z,20.49
2017-09-30T09:24:27.092Z,19.95
2017-09-30T09:25:27.064Z,19.86
2017-09-30T09:26:27.283Z,19.69
2017-09-30T09:27:27.747Z,19.78
2017-09-30T09:28:27.392Z,20.31
2017-09-30T09:29:27.281Z,20.64
2017-09-30T09:30:27.335Z,20.90
2017-09-30T09:31:27.389Z,20.96
2017-09-30T09:32:27.984Z,20.68
2017-09-30T09:33:28.219Z,20.43
2017-09-30T09:34:27.551Z,20.18
2017-09-30T09:35:27.923Z,19.95
2017-09-30T09:36:27.826Z,19.97
2017-09-30T09:37:28.692Z,19.70
2017-09-30T09:38:28.641Z,19.63
2017-09-30T09:39:29.114Z,19.55
2017-09-30T09:40:28.690Z,19.60
2017-09-30T09:41:28.857Z,19.98
2017-09-30T09:42:29.606Z,20.34
2017-09-30T09:43:28.498Z,20.77
2017-09-30T09:44:28.639Z,21.19
2017-09-30T09:45:28.536Z,21.50
2017-09-30T09:46:28.836Z,20.93
2017-09-30T09:47:28.933Z,21.06
2017-09-30T09:48:28.882Z,21.30
2017-09-30T09:49:29.147Z,21.51
2017-09-30T09:50:28.917Z,21.54
2017-09-30T09:51:28.959Z,21.61
2017-09-30T09:52:28.706Z,21.35
2017-09-30T09:53:29.118Z,21.79
2017-09-30T09:54:29.128Z,21.99
2017-09-30T09:55:29.538Z,22.39
2017-09-30T09:56:29.182Z,22.46
2017-09-30T09:57:28.923Z,22.34
2017-09-30T09:58:29.334Z,21.61
2017-09-30T09:59:28.972Z,21.09
2017-09-30T10:00:29.631Z,20.87
2017-09-30T10:01:29.648Z,20.98
2017-09-30T10:02:30.045Z,21.01
2017-09-30T10:03:29.905Z,21.11
2017-09-30T10:04:29.949Z,20.95
2017-09-30T10:05:30.219Z,20.79
2017-09-30T10:06:29.643Z,20.98
2017-09-30T10:07:30.282Z,20.64
2017-09-30T10:08:30.319Z,20.51
2017-09-30T10:09:30.371Z,20.71
2017-09-30T10:10:30.421Z,20.50
2017-09-30T10:11:30.166Z,20.31
2017-09-30T10:12:30.426Z,20.23
2017-09-30T10:13:30.434Z,20.50
2017-09-30T10:14:30.525Z,20.62
2017-09-30T10:15:30.749Z,20.86
2017-09-30T10:16:29.840Z,20.90
2017-09-30T10:17:30.943Z,20.81
2017-09-30T10:18:30.129Z,20.87
2017-09-30T10:19:30.929Z,20.98
2017-09-30T10:20:30.989Z,21.41
2017-09-30T10:21:30.110Z,21.83
2017-09-30T10:22:30.690Z,22.13
2017-09-30T10:23:31.149Z,22.25
2017-09-30T10:24:31.095Z,22.09
2017-09-30T10:25:31.251Z,22.34
2017-09-30T10:26:31.022Z,21.98
2017-09-30T10:27:30.729Z,21.91
2017-09-30T10:28:31.417Z,21.46
2017-09-30T10:29:31.373Z,21.20
2017-09-30T10:30:31.391Z,20.84
2017-09-30T10:31:31.438Z,21.09
2017-09-30T10:32:31.512Z,21.21
2017-09-30T10:33:31.693Z,20.99
2017-09-30T10:34:31.403Z,20.95
2017-09-30T10:35:31.508Z,20.84
2017-09-30T10:36:31.780Z,20.80
2017-09-30T10:37:31.469Z,21.02
2017-09-30T10:38:31.921Z,21.46
2017-09-30T10:39:32.039Z,21.74
2017-09-30T10:40:31.840Z,21.88
2017-09-30T10:41:32.240Z,21.50
2017-09-30T10:42:31.930Z,21.91
2017-09-30T10:43:31.841Z,22.22
2017-09-30T10:44:32.096Z,22.64
2017-09-30T10:45:32.036Z,22.87
2017-09-30T10:46:32.432Z,23.09
2017-09-30T10:47:32.037Z,22.09
2017-09-30T10:48:31.818Z,22.28
2017-09-30T10:49:31.653Z,22.62
2017-09-30T10:50:31.716Z,22.72
2017-09-30T10:51:32.602Z,22.35
2017-09-30T10:52:32.410Z,22.09
2017-09-30T10:53:32.729Z,21.88
2017-09-30T10:54:32.991Z,21.98
2017-09-30T10:55:32.391Z,21.82
2017-09-30T10:56:32.857Z,21.97
2017-09-30T10:57:32.596Z,22.06
2017-09-30T10:58:33.127Z,21.95
2017-09-30T10:59:32.538Z,22.38
2017-09-30T11:00:32.787Z,22.49
2017-09-30T11:01:33.042Z,22.62
2017-09-30T11:02:33.593Z,22.92
2017-09-30T11:03:32.439Z,23.17
2017-09-30T11:04:32.496Z,22.54
2017-09-30T11:05:32.977Z,22.10
2017-09-30T11:06:33.463Z,22.07
2017-09-30T11:07:33.611Z,21.72
2017-09-30T11:08:33.668Z,21.19
2017-09-30T11:09:33.392Z,20.93
2017-09-30T11:10:33.322Z,20.93
2017-09-30T11:11:32.888Z,21.04
2017-09-30T11:12:33.848Z,21.63
2017-09-30T11:13:33.547Z,21.78
2017-09-30T11:14:33.055Z,21.42
2017-09-30T11:15:34.003Z,21.50
2017-09-30T11:16:34.296Z,21.24
2017-09-30T11:17:33.787Z,20.95
2017-09-30T11:18:34.080Z,21.11
2017-09-30T11:19:33.779Z,20.87
2017-09-30T11:20:34.332Z,20.91
2017-09-30T11:21:34.084Z,20.86
2017-09-30T11:22:33.501Z,21.11
2017-09-30T11:23:34.361Z,21.21
2017-09-30T11:24:34.480Z,21.44
2017-09-30T11:25:34.518Z,21.83
2017-09-30T11:26:34.604Z,21.98
2017-09-30T11:27:34.662Z,21.76
2017-09-30T11:28:34.565Z,21.32
2017-09-30T11:29:34.808Z,20.64
2017-09-30T11:30:34.739Z,20.46
2017-09-30T11:31:34.747Z,19.98
2017-09-30T11:32:34.643Z,18.90
2017-09-30T11:33:34.984Z,18.40
2017-09-30T11:34:35.155Z,17.99
2017-09-30T11:35:35.158Z,18.10
2017-09-30T11:36:34.814Z,18.06
2017-09-30T11:37:35.104Z,17.92
2017-09-30T11:38:35.143Z,17.69
2017-09-30T11:39:35.296Z,17.70
2017-09-30T11:40:35.082Z,18.00
2017-09-30T11:41:35.490Z,17.88
2017-09-30T11:42:35.568Z,17.82
2017-09-30T11:43:35.853Z,17.82
2017-09-30T11:44:35.641Z,17.62
2017-09-30T11:45:35.682Z,17.73
2017-09-30T11:46:35.469Z,18.15
2017-09-30T11:47:35.428Z,18.64
2017-09-30T11:48:35.708Z,18.67
2017-09-30T11:49:35.922Z,18.39
2017-09-30T11:50:35.865Z,18.10
2017-09-30T11:51:35.514Z,18.21
2017-09-30T11:52:36.091Z,18.22
2017-09-30T11:53:36.013Z,18.19
2017-09-30T11:54:36.020Z,18.19
2017-09-30T11:55:35.852Z,17.69
2017-09-30T11:56:36.303Z,17.62
2017-09-30T11:57:36.233Z,17.70
2017-09-30T11:58:36.434Z,17.82
2017-09-30T11:59:36.248Z,18.10
2017-09-30T12:00:36.430Z,18.19
2017-09-30T12:01:36.182Z,18.34
2017-09-30T12:02:36.501Z,18.42
2017-09-30T12:03:36.509Z,18.70
2017-09-30T12:04:36.614Z,18.91
2017-09-30T12:05:36.805Z,19.29
2017-09-30T12:06:36.338Z,19.42
2017-09-30T12:07:36.207Z,19.72
2017-09-30T12:08:36.848Z,19.84
2017-09-30T12:09:36.353Z,20.18
2017-09-30T12:10:36.960Z,20.33
2017-09-30T12:11:36.802Z,20.23
2017-09-30T12:12:36.454Z,19.63
2017-09-30T12:13:36.718Z,19.36
2017-09-30T12:14:36.916Z,19.18
2017-09-30T12:15:37.278Z,19.14
2017-09-30T12:16:36.623Z,19.35
2017-09-30T12:17:37.350Z,19.54
2017-09-30T12:18:36.736Z,19.43
2017-09-30T12:19:36.828Z,19.23
2017-09-30T12:20:37.113Z,19.11
2017-09-30T12:21:36.959Z,19.18
2017-09-30T12:22:37.501Z,19.54
2017-09-30T12:23:37.039Z,19.80
2017-09-30T12:24:37.089Z,20.12
2017-09-30T12:25:37.443Z,20.18
2017-09-30T12:26:37.442Z,20.10
2017-09-30T12:27:37.518Z,20.34
2017-09-30T12:28:37.623Z,20.38
2017-09-30T12:29:37.659Z,20.58
2017-09-30T12:30:37.811Z,20.49
2017-09-30T12:31:37.672Z,20.59
2017-09-30T12:32:37.571Z,20.80
2017-09-30T12:33:37.651Z,20.98
2017-09-30T12:34:38.339Z,21.30
2017-09-30T12:35:38.259Z,21.46
2017-09-30T12:36:37.799Z,21.63
2017-09-30T12:37:37.937Z,21.85
2017-09-30T12:38:37.972Z,21.35
2017-09-30T12:39:38.160Z,21.26
2017-09-30T12:40:38.500Z,21.41
2017-09-30T12:41:38.043Z,21.23
2017-09-30T12:42:38.067Z,21.36
2017-09-30T12:43:38.168Z,21.71
2017-09-30T12:44:38.141Z,21.61
2017-09-30T12:45:38.763Z,21.54
2017-09-30T12:46:38.394Z,21.72
2017-09-30T12:47:38.321Z,21.56
2017-09-30T12:48:38.415Z,21.26
2017-09-30T12:49:38.451Z,21.21
2017-09-30T12:50:38.903Z,21.26
2017-09-30T12:51:38.797Z,21.27
2017-09-30T12:52:39.258Z,21.35
2017-09-30T12:53:38.805Z,21.30